Time;durP1;ratioP1;P1;durP2;ratioP2;P2;SDS_P1;SDS_P2;PMS_P1;PMS_P2;Temp;Humidity;BMP_temperature;BMP_pressure;BME280_temperature;BME280_humidity;BME280_pressure;Samples;Min_cycle;Max_cycle;Signal;HPM_P1;HPM_P2
2022/08/14 00:00:02;;;;;;;8.23;5.20;;;13.80;35.40;;;;;;5059822;28;46493;-64
2022/08/14 00:02:28;;;;;;;10.50;5.30;;;;;;;;;;5062678;28;45915;-64
2022/08/14 00:04:54;;;;;;;7.60;4.93;;;;;;;;;;5072461;28;46323;-64
2022/08/14 00:07:20;;;;;;;12.73;4.90;;;;;;;;;;5065356;28;46786;-64
2022/08/14 00:09:46;;;;;;;10.90;5.50;;;13.30;38.10;;;;;;5060422;28;45758;-64
2022/08/14 00:12:12;;;;;;;11.77;6.23;;;;;;;;;;5060388;28;46358;-64
2022/08/14 00:14:38;;;;;;;11.63;6.63;;;;;;;;;;5059754;28;46554;-64
2022/08/14 00:17:04;;;;;;;16.10;5.87;;;13.10;35.10;;;;;;5058993;28;46752;-64
2022/08/14 00:19:30;;;;;;;8.23;5.33;;;;;;;;;;5058486;28;46448;-64
2022/08/14 00:21:56;;;;;;;8.33;5.60;;;;;;;;;;5060619;28;46427;-64
2022/08/14 00:24:22;;;;;;;9.80;6.07;;;;;;;;;;5059163;28;46683;-64
2022/08/14 00:26:48;;;;;;;10.73;6.43;;;12.90;35.40;;;;;;5055601;28;46480;-64
2022/08/14 00:29:13;;;;;;;9.67;5.90;;;;;;;;;;5056672;28;46477;-64
2022/08/14 00:31:39;;;;;;;9.47;5.60;;;12.60;43.50;;;;;;5060637;28;46401;-64
2022/08/14 00:34:05;;;;;;;9.57;6.00;;;12.80;44.20;;;;;;5059095;28;46315;-64
2022/08/14 00:36:31;;;;;;;12.30;5.63;;;;;;;;;;5059614;28;46468;-63
2022/08/14 00:38:57;;;;;;;8.73;6.10;;;;;;;;;;5058530;28;46376;-65
2022/08/14 00:41:23;;;;;;;17.17;6.53;;;;;;;;;;5059184;28;45857;-64
2022/08/14 00:43:49;;;;;;;10.40;6.27;;;;;;;;;;5060163;28;47162;-64
2022/08/14 00:46:15;;;;;;;18.00;6.10;;;;;;;;;;5059276;28;46429;-65
2022/08/14 00:48:41;;;;;;;9.20;5.90;;;12.30;40.30;;;;;;5058023;28;46469;-63
2022/08/14 00:51:08;;;;;;;11.63;6.37;;;13.10;38.40;;;;;;5060035;28;46334;-64
2022/08/14 00:53:35;;;;;;;11.67;5.43;;;12.70;37.10;;;;;;5059535;28;47167;-63
2022/08/14 00:56:03;;;;;;;8.43;5.80;;;12.80;50.90;;;;;;5059894;28;46492;-64
2022/08/14 00:58:32;;;;;;;11.83;6.57;;;;;;;;;;5056057;28;46450;-64
2022/08/14 01:01:09;;;;;;;11.30;6.47;;;12.70;43.30;;;;;;5060122;28;46604;-63
2022/08/14 01:03:38;;;;;;;9.63;6.80;;;12.80;36.70;;;;;;5058551;28;47293;-63
2022/08/14 01:06:07;;;;;;;12.53;7.07;;;13.00;44.90;;;;;;5059209;28;45900;-64
2022/08/14 01:08:34;;;;;;;10.17;7.73;;;12.80;49.00;;;;;;5057480;28;46451;-64
2022/08/14 01:11:00;;;;;;;12.40;7.10;;;12.80;43.50;;;;;;5056153;28;45918;-63
2022/08/14 01:13:31;;;;;;;10.93;7.03;;;12.80;48.20;;;;;;5055756;28;46643;-63
2022/08/14 01:16:00;;;;;;;12.63;7.27;;;12.90;36.50;;;;;;5059238;28;46520;-64
2022/08/14 01:21:16;;;;;;;12.33;6.73;;;12.70;36.90;;;;;;5059926;28;46484;-64
2022/08/14 01:23:46;;;;;;;11.03;7.23;;;12.70;50.90;;;;;;5059472;28;46983;-64
2022/08/14 01:26:14;;;;;;;7.83;5.60;;;12.90;36.70;;;;;;5062570;28;46497;-64
2022/08/14 01:28:41;;;;;;;12.10;6.00;;;;;;;;;;5059172;28;46390;-64
2022/08/14 01:31:12;;;;;;;7.90;5.80;;;12.60;52.40;;;;;;5061746;28;46444;-65
2022/08/14 01:33:43;;;;;;;11.57;6.00;;;12.60;37.00;;;;;;5060647;28;46622;-65
2022/08/14 01:36:09;;;;;;;7.33;5.77;;;;;;;;;;5061365;28;46664;-65
2022/08/14 01:38:36;;;;;;;8.20;5.97;;;12.60;37.30;;;;;;5062381;28;46318;-64
2022/08/14 01:41:12;;;;;;;11.13;6.03;;;12.40;39.60;;;;;;5059535;28;46465;-64
2022/08/14 01:43:49;;;;;;;11.53;6.23;;;12.50;42.00;;;;;;5061451;28;46614;-64
2022/08/14 01:46:17;;;;;;;11.07;5.70;;;13.40;38.70;;;;;;5062784;28;46413;-65
2022/08/14 01:48:44;;;;;;;9.80;5.63;;;12.30;44.40;;;;;;5061821;28;46427;-65
2022/08/14 01:51:12;;;;;;;10.90;5.43;;;12.10;48.60;;;;;;5061248;28;46577;-64
2022/08/14 01:53:43;;;;;;;10.40;5.93;;;14.10;39.70;;;;;;5060872;28;47017;-64
2022/08/14 01:56:09;;;;;;;7.80;5.80;;;11.80;51.20;;;;;;5059166;28;46360;-64
2022/08/14 01:58:36;;;;;;;10.17;5.63;;;;;;;;;;5062201;28;46328;-64
2022/08/14 02:01:03;;;;;;;7.83;4.90;;;11.80;38.30;;;;;;5061993;28;46321;-64
2022/08/14 02:03:34;;;;;;;7.73;5.40;;;11.60;45.90;;;;;;5061001;28;46381;-64
2022/08/14 02:06:01;;;;;;;11.07;6.10;;;11.90;51.60;;;;;;5058671;28;46386;-64
2022/08/14 02:08:31;;;;;;;12.00;6.50;;;11.60;38.30;;;;;;5059385;28;46424;-64
2022/08/14 02:11:20;;;;;;;18.43;6.97;;;11.80;47.50;;;;;;5062125;28;46454;-63
2022/08/14 02:13:57;;;;;;;14.00;6.50;;;11.60;38.20;;;;;;5061208;28;46617;-65
2022/08/14 02:16:25;;;;;;;15.23;7.70;;;11.80;37.90;;;;;;5061480;28;46469;-64
2022/08/14 02:18:52;;;;;;;11.83;6.90;;;11.80;42.40;;;;;;5060691;28;46520;-64
2022/08/14 02:21:19;;;;;;;11.63;6.40;;;12.00;40.70;;;;;;5061500;28;46480;-65
2022/08/14 02:23:46;;;;;;;11.47;6.77;;;11.90;37.70;;;;;;5061920;28;46362;-65
2022/08/14 02:26:18;;;;;;;10.40;7.07;;;11.50;50.70;;;;;;5062049;28;45799;-65
2022/08/14 02:28:45;;;;;;;8.60;6.27;;;;;;;;;;5058276;28;46513;-64
2022/08/14 02:31:11;;;;;;;9.00;6.40;;;11.90;51.60;;;;;;5061323;28;46063;-64
2022/08/14 02:33:37;;;;;;;8.70;5.77;;;;;;;;;;5060524;28;46950;-64
2022/08/14 02:36:03;;;;;;;7.70;5.47;;;11.60;38.70;;;;;;5058022;28;46504;-63
2022/08/14 02:38:30;;;;;;;9.73;6.53;;;11.60;38.80;;;;;;5056796;28;46451;-64
2022/08/14 02:40:57;;;;;;;8.97;6.80;;;11.50;38.70;;;;;;5060372;28;46522;-64
2022/08/14 02:43:22;;;;;;;12.73;6.77;;;11.20;51.50;;;;;;5061231;28;47273;-64
2022/08/14 02:45:48;;;;;;;10.30;6.30;;;11.20;49.50;;;;;;5059639;28;46461;-63
2022/08/14 02:48:14;;;;;;;9.70;6.43;;;;;;;;;;5065889;28;46445;-64
2022/08/14 02:50:41;;;;;;;10.30;6.70;;;11.30;38.70;;;;;;5068516;28;46731;-64
2022/08/14 02:53:10;;;;;;;14.93;6.80;;;11.20;51.90;;;;;;5058714;28;47259;-65
2022/08/14 02:55:39;;;;;;;10.83;6.50;;;;;;;;;;5057955;28;46906;-64
2022/08/14 02:58:06;;;;;;;8.93;6.33;;;11.40;38.60;;;;;;5060124;28;46402;-65
2022/08/14 03:00:34;;;;;;;11.67;6.50;;;11.30;38.50;;;;;;5060414;28;46447;-64
2022/08/14 03:03:03;;;;;;;9.27;6.60;;;11.70;47.80;;;;;;5061173;28;47243;-64
2022/08/14 03:05:29;;;;;;;13.43;7.33;;;11.20;43.00;;;;;;5060103;28;46447;-64
2022/08/14 03:08:12;;;;;;;8.90;6.50;;;11.40;38.60;;;;;;5060941;28;46525;-64
2022/08/14 03:10:38;;;;;;;11.30;6.77;;;11.30;38.60;;;;;;5059526;28;46369;-64
2022/08/14 03:13:05;;;;;;;11.23;7.37;;;11.60;53.70;;;;;;5059827;28;47215;-65
2022/08/14 03:15:38;;;;;;;10.70;7.47;;;11.30;39.20;;;;;;5059857;28;46397;-64
2022/08/14 03:18:05;;;;;;;13.17;6.50;;;;;;;;;;5060596;28;46400;-65
2022/08/14 03:20:30;;;;;;;9.60;7.10;;;11.10;42.20;;;;;;5060871;28;46389;-64
2022/08/14 03:22:58;;;;;;;9.00;6.47;;;11.30;43.70;;;;;;5060845;28;46446;-64
2022/08/14 03:25:24;;;;;;;11.80;7.50;;;;;;;;;;5057140;28;46412;-63
2022/08/14 03:27:50;;;;;;;10.20;7.40;;;11.40;54.70;;;;;;5059800;28;46417;-64
2022/08/14 03:30:15;;;;;;;12.33;7.57;;;11.00;55.10;;;;;;5059591;28;46375;-64
2022/08/14 03:32:43;;;;;;;14.73;7.90;;;;;;;;;;5059950;28;47881;-64
2022/08/14 03:35:10;;;;;;;10.97;7.27;;;11.50;55.10;;;;;;5060373;28;46447;-64
2022/08/14 03:37:37;;;;;;;11.87;6.63;;;11.20;40.20;;;;;;5059038;28;46362;-64
2022/08/14 03:40:05;;;;;;;10.23;7.20;;;11.20;40.10;;;;;;5059370;28;45977;-64
2022/08/14 03:42:30;;;;;;;10.63;6.73;;;11.10;55.20;;;;;;5059866;28;47001;-64
2022/08/14 03:44:57;;;;;;;10.53;6.90;;;11.20;44.00;;;;;;5059618;28;46508;-65
2022/08/14 03:47:24;;;;;;;10.30;6.47;;;;;;;;;;5059324;28;46572;-64
2022/08/14 03:49:49;;;;;;;12.23;6.63;;;11.50;54.90;;;;;;5059936;28;46268;-64
2022/08/14 03:52:15;;;;;;;11.60;5.77;;;12.20;55.50;;;;;;5061252;28;46496;-64
2022/08/14 03:54:41;;;;;;;14.57;6.43;;;11.20;50.00;;;;;;5060159;27;46458;-64
2022/08/14 03:57:07;;;;;;;9.73;6.10;;;11.20;48.20;;;;;;5057833;28;46429;-64
2022/08/14 03:59:33;;;;;;;9.53;6.33;;;11.30;40.40;;;;;;5060989;28;46354;-63
2022/08/14 04:02:02;;;;;;;10.03;7.00;;;11.30;40.40;;;;;;5059163;28;47014;-64
2022/08/14 04:04:31;;;;;;;8.90;6.60;;;11.70;45.60;;;;;;5055888;28;46779;-64
2022/08/14 04:06:58;;;;;;;10.70;7.20;;;11.50;55.00;;;;;;5055703;28;46414;-64
2022/08/14 04:09:25;;;;;;;9.27;6.20;;;;;;;;;;5058786;28;45823;-63
2022/08/14 04:11:50;;;;;;;15.13;6.93;;;11.40;55.80;;;;;;5059977;28;46370;-64
2022/08/14 04:14:16;;;;;;;8.87;6.20;;;;;;;;;;5060144;28;46428;-64
2022/08/14 04:16:45;;;;;;;9.03;6.47;;;;;;;;;;5058742;28;46348;-63
2022/08/14 04:19:10;;;;;;;10.30;5.60;;;11.20;43.50;;;;;;5060218;28;46346;-65
2022/08/14 04:21:36;;;;;;;9.67;5.93;;;;;;;;;;5060411;28;46376;-64
2022/08/14 04:24:04;;;;;;;12.30;6.00;;;;;;;;;;5059792;28;46623;-65
2022/08/14 04:26:31;;;;;;;10.77;5.30;;;;;;;;;;5059118;28;46522;-64
2022/08/14 04:28:57;;;;;;;8.47;5.87;;;;;;;;;;5057858;28;46762;-64
2022/08/14 04:31:23;;;;;;;8.70;5.80;;;10.40;41.50;;;;;;5057973;28;46429;-64
2022/08/14 04:33:51;;;;;;;8.37;5.93;;;;;;;;;;5057902;28;46479;-66
2022/08/14 04:36:17;;;;;;;11.40;7.37;;;11.20;47.60;;;;;;5060204;28;46404;-64
2022/08/14 04:44:12;;;;;;;8.30;6.23;;;11.60;41.40;;;;;;5058960;28;45920;-63
2022/08/14 04:46:38;;;;;;;8.57;5.50;;;;;;;;;;5066065;28;46293;-63
2022/08/14 04:49:04;;;;;;;8.53;5.73;;;11.50;53.90;;;;;;5059168;28;45997;-64
2022/08/14 04:51:31;;;;;;;8.90;6.20;;;;;;;;;;5059473;28;46127;-65
2022/08/14 04:53:59;;;;;;;7.97;5.87;;;12.10;47.80;;;;;;5059002;28;46483;-64
2022/08/14 04:56:25;;;;;;;9.27;6.00;;;11.90;39.90;;;;;;5057283;28;46400;-64
2022/08/14 04:58:56;;;;;;;7.93;6.17;;;12.00;40.00;;;;;;5059946;28;46346;-65
2022/08/14 05:01:23;;;;;;;8.73;6.57;;;12.20;39.50;;;;;;5063185;28;46483;-65
2022/08/14 05:03:49;;;;;;;8.67;6.30;;;;;;;;;;5060867;28;46653;-64
2022/08/14 05:06:15;;;;;;;7.37;5.10;;;13.70;53.90;;;;;;5063965;28;46267;-65
2022/08/14 05:08:42;;;;;;;6.20;4.40;;;15.10;51.80;;;;;;5060001;28;46373;-64
2022/08/14 05:11:08;;;;;;;9.10;4.57;;;15.90;36.30;;;;;;5062212;28;46061;-65
2022/08/14 05:13:35;;;;;;;9.23;3.90;;;16.90;34.60;;;;;;5060925;28;46406;-65
2022/08/14 05:16:02;;;;;;;5.87;4.57;;;17.90;44.20;;;;;;5063495;28;46353;-66
2022/08/14 05:18:31;;;;;;;7.77;4.60;;;18.70;31.80;;;;;;5061484;28;46394;-63
2022/08/14 05:20:59;;;;;;;7.67;4.73;;;19.40;30.50;;;;;;5060259;28;46607;-65
2022/08/14 05:23:28;;;;;;;5.77;4.33;;;20.20;28.90;;;;;;5062103;28;46841;-65
2022/08/14 05:26:00;;;;;;;6.43;4.53;;;20.90;28.00;;;;;;5062973;28;46449;-65
2022/08/14 05:28:27;;;;;;;6.97;4.70;;;21.40;36.00;;;;;;5060119;28;46367;-65
2022/08/14 05:30:55;;;;;;;6.80;4.33;;;21.90;25.80;;;;;;5058164;28;46952;-65
2022/08/14 05:33:23;;;;;;;8.93;4.33;;;22.50;24.30;;;;;;5059416;28;46486;-65
2022/08/14 05:35:51;;;;;;;8.40;4.53;;;22.80;23.60;;;;;;5060189;28;45863;-65
2022/08/14 05:38:20;;;;;;;7.67;4.57;;;23.40;22.70;;;;;;5061482;28;46666;-66
2022/08/14 05:40:47;;;;;;;6.17;4.30;;;23.90;21.80;;;;;;5061523;28;46586;-66
2022/08/14 05:43:17;;;;;;;4.90;3.60;;;24.40;20.80;;;;;;5062717;28;45833;-66
2022/08/14 05:45:43;;;;;;;6.00;4.33;;;;;;;;;;5060201;28;46515;-67
2022/08/14 05:48:13;;;;;;;6.97;3.83;;;25.30;27.20;;;;;;5061328;28;46574;-67
2022/08/14 05:50:39;;;;;;;8.70;4.50;;;;;;;;;;5060175;28;47285;-67
2022/08/14 05:53:05;;;;;;;6.37;4.03;;;25.70;25.10;;;;;;5062466;28;45776;-68
2022/08/14 05:55:31;;;;;;;4.90;3.70;;;26.40;22.80;;;;;;5060578;28;46548;-68
2022/08/14 05:58:05;;;;;;;7.83;3.87;;;26.20;16.60;;;;;;5060223;28;46525;-68
2022/08/14 06:00:34;;;;;;;6.50;3.90;;;26.70;16.40;;;;;;5058386;28;46465;-66
2022/08/14 06:03:01;;;;;;;5.83;3.80;;;26.40;22.50;;;;;;5057644;28;46491;-67
2022/08/14 06:05:27;;;;;;;7.60;4.13;;;27.30;14.30;;;;;;5060168;28;46374;-68
2022/08/14 06:07:53;;;;;;;6.20;3.53;;;;;;;;;;5060929;28;46594;-66
2022/08/14 06:10:20;;;;;;;5.20;3.47;;;;;;;;;;5060932;28;47314;-67
2022/08/14 06:12:46;;;;;;;4.97;3.67;;;;;;;;;;5062707;28;46614;-68
2022/08/14 06:15:12;;;;;;;5.53;3.73;;;;;;;;;;5060095;28;46536;-68
2022/08/14 06:17:49;;;;;;;5.63;3.83;;;28.10;11.60;;;;;;5060071;28;46429;-66
2022/08/14 06:20:16;;;;;;;10.70;3.70;;;28.30;11.40;;;;;;5057939;28;47260;-67
2022/08/14 06:22:43;;;;;;;8.23;3.27;;;28.40;10.90;;;;;;5059091;28;46486;-66
2022/08/14 06:25:11;;;;;;;7.17;3.57;;;28.50;17.20;;;;;;5058433;28;46414;-67
2022/08/14 06:27:38;;;;;;;4.63;3.53;;;28.70;9.60;;;;;;5058476;28;46454;-66
2022/08/14 06:30:06;;;;;;;6.50;3.30;;;29.20;16.20;;;;;;5060209;28;46620;-65
2022/08/14 06:32:32;;;;;;;8.57;3.67;;;28.40;15.70;;;;;;5061453;28;46404;-68
2022/08/14 06:34:58;;;;;;;6.33;3.40;;;27.40;19.20;;;;;;5062950;28;46631;-67
2022/08/14 06:37:23;;;;;;;5.30;3.70;;;25.80;15.80;;;;;;5061987;28;46496;-68
2022/08/14 06:39:49;;;;;;;6.40;3.50;;;25.30;15.60;;;;;;5061521;28;46351;-65
2022/08/14 06:42:15;;;;;;;5.50;3.50;;;;;;;;;;5059093;28;46430;-67
2022/08/14 06:44:41;;;;;;;5.10;3.43;;;;;;;;;;5059401;28;46442;-68
2022/08/14 06:47:07;;;;;;;7.37;3.90;;;27.20;16.80;;;;;;5059743;28;45973;-67
2022/08/14 06:49:33;;;;;;;4.97;3.60;;;;;;;;;;5060443;28;46723;-68
2022/08/14 06:51:59;;;;;;;5.40;3.70;;;27.90;14.40;;;;;;5059845;28;46356;-68
2022/08/14 06:54:25;;;;;;;5.37;3.43;;;;;;;;;;5061288;28;45859;-68
2022/08/14 06:56:51;;;;;;;7.67;3.63;;;;;;;;;;5059485;28;46374;-68
2022/08/14 06:59:17;;;;;;;5.33;3.43;;;;;;;;;;5060383;28;46432;-68
2022/08/14 07:07:11;;;;;;;6.00;4.17;;;24.30;17.70;;;;;;5058760;28;46382;-68
2022/08/14 07:09:38;;;;;;;11.67;4.03;;;;;;;;;;5061430;28;46473;-67
2022/08/14 07:12:04;;;;;;;6.10;4.37;;;;;;;;;;5057214;28;46111;-68
2022/08/14 07:14:30;;;;;;;14.50;4.23;;;;;;;;;;5061180;28;46567;-67
2022/08/14 07:16:56;;;;;;;6.00;4.50;;;22.30;26.40;;;;;;5063285;28;46821;-68
2022/08/14 07:19:22;;;;;;;4.80;3.43;;;22.60;23.60;;;;;;5062256;28;46416;-67
2022/08/14 07:21:48;;;;;;;16.20;4.40;;;;;;;;;;5062310;28;46682;-67
2022/08/14 07:24:14;;;;;;;5.33;3.60;;;;;;;;;;5062471;28;46346;-67
2022/08/14 07:26:40;;;;;;;5.23;3.90;;;22.70;26.80;;;;;;5061715;28;46369;-67
2022/08/14 07:29:05;;;;;;;5.13;3.70;;;22.70;27.70;;;;;;5063122;28;47547;-67
2022/08/14 07:31:31;;;;;;;13.77;3.57;;;22.70;27.20;;;;;;5064682;28;46423;-67
2022/08/14 07:33:57;;;;;;;6.90;3.60;;;;;;;;;;5062441;28;46486;-67
2022/08/14 07:36:23;;;;;;;6.00;3.50;;;;;;;;;;5063227;28;46572;-67
2022/08/14 07:38:49;;;;;;;9.47;3.00;;;23.40;18.10;;;;;;5063119;28;46338;-67
2022/08/14 07:41:15;;;;;;;4.87;3.30;;;;;;;;;;5061539;28;46685;-68
2022/08/14 07:43:42;;;;;;;8.23;3.43;;;23.80;17.00;;;;;;5070778;28;46560;-68
2022/08/14 07:46:08;;;;;;;6.10;2.77;;;23.70;16.50;;;;;;5062171;28;46583;-67
2022/08/14 07:48:39;;;;;;;4.17;2.70;;;24.00;16.20;;;;;;5061474;28;46405;-69
2022/08/14 07:51:05;;;;;;;8.10;3.10;;;24.40;22.60;;;;;;5064398;28;46304;-68
2022/08/14 07:53:32;;;;;;;10.97;2.87;;;24.40;15.20;;;;;;5062773;28;46441;-68
2022/08/14 07:55:58;;;;;;;4.40;2.50;;;24.70;23.60;;;;;;5062757;28;46373;-67
2022/08/14 07:58:24;;;;;;;4.90;2.67;;;;;;;;;;5060956;28;46675;-69
2022/08/14 08:00:54;;;;;;;3.90;2.70;;;24.20;13.50;;;;;;5060031;28;46477;-69
2022/08/14 08:03:20;;;;;;;4.07;2.90;;;24.60;22.70;;;;;;5061995;28;46713;-69
2022/08/14 08:05:46;;;;;;;12.63;2.70;;;;;;;;;;5060340;28;46400;-69
2022/08/14 08:08:15;;;;;;;4.63;2.63;;;24.10;21.70;;;;;;5062311;28;46430;-68
2022/08/14 08:10:42;;;;;;;5.37;2.73;;;24.40;13.40;;;;;;5062484;28;46408;-68
2022/08/14 08:13:11;;;;;;;4.97;3.17;;;24.70;18.20;;;;;;5061082;28;46454;-67
2022/08/14 08:15:42;;;;;;;3.57;2.70;;;24.80;12.10;;;;;;5061903;28;46597;-67
2022/08/14 08:18:12;;;;;;;4.73;2.40;;;24.80;11.80;;;;;;5060144;28;46490;-70
2022/08/14 08:20:42;;;;;;;6.07;2.73;;;24.90;11.30;;;;;;5061758;28;46955;-68
2022/08/14 08:23:08;;;;;;;3.73;2.57;;;24.60;10.80;;;;;;5061208;28;45858;-67
2022/08/14 08:25:37;;;;;;;4.87;2.67;;;25.10;11.00;;;;;;5061953;28;46457;-68
2022/08/14 08:28:03;;;;;;;4.70;2.90;;;;;;;;;;5060232;28;46423;-68
2022/08/14 08:30:31;;;;;;;4.90;3.10;;;25.20;10.60;;;;;;5062739;28;46393;-67
2022/08/14 08:32:59;;;;;;;3.80;2.40;;;25.50;16.00;;;;;;5061940;28;46405;-68
2022/08/14 08:35:27;;;;;;;6.50;2.80;;;25.40;10.40;;;;;;5064673;28;46327;-67
2022/08/14 08:37:54;;;;;;;9.90;2.80;;;25.50;11.00;;;;;;5059277;28;46392;-68
2022/08/14 08:40:24;;;;;;;4.63;3.20;;;25.60;14.00;;;;;;5062521;28;46405;-70
2022/08/14 08:42:51;;;;;;;12.27;3.20;;;25.30;9.60;;;;;;5062032;28;46475;-66
2022/08/14 08:45:18;;;;;;;7.37;2.70;;;25.50;9.40;;;;;;5061790;28;46441;-67
2022/08/14 08:47:44;;;;;;;4.97;3.03;;;25.30;14.10;;;;;;5060469;28;48642;-67
2022/08/14 08:50:20;;;;;;;6.70;3.00;;;25.30;8.90;;;;;;5063738;28;45745;-69
2022/08/14 08:52:53;;;;;;;6.70;2.87;;;25.40;8.90;;;;;;5062406;28;46729;-68
2022/08/14 08:55:31;;;;;;;5.77;2.60;;;25.50;8.70;;;;;;5063797;28;46460;-69
2022/08/14 08:58:06;;;;;;;4.47;3.03;;;25.60;8.80;;;;;;5062000;28;46406;-69
2022/08/14 09:00:33;;;;;;;4.37;2.67;;;25.60;8.80;;;;;;5062586;28;46867;-69
2022/08/14 09:03:08;;;;;;;5.83;3.40;;;25.60;8.80;;;;;;5063139;28;45782;-69
2022/08/14 09:05:37;;;;;;;6.87;2.70;;;25.50;16.30;;;;;;5063671;28;46415;-69
2022/08/14 09:08:15;;;;;;;4.63;2.90;;;25.80;11.30;;;;;;5067980;28;46410;-67
2022/08/14 09:10:42;;;;;;;5.30;2.60;;;25.80;16.30;;;;;;5062508;28;46256;-68
2022/08/14 09:13:10;;;;;;;4.67;3.07;;;;;;;;;;5064113;28;46715;-67
2022/08/14 09:15:37;;;;;;;4.73;3.20;;;25.90;7.70;;;;;;5062952;28;46434;-67
2022/08/14 09:18:04;;;;;;;4.53;3.03;;;;;;;;;;5064793;28;46414;-67
2022/08/14 09:20:30;;;;;;;5.93;3.30;;;26.10;12.80;;;;;;5064851;28;46425;-68
2022/08/14 09:22:57;;;;;;;6.07;3.10;;;26.00;7.50;;;;;;5062169;28;45797;-66
2022/08/14 09:25:23;;;;;;;5.80;3.07;;;25.80;15.50;;;;;;5063667;28;46482;-66
2022/08/14 09:27:49;;;;;;;4.37;2.97;;;;;;;;;;5065221;28;47366;-69
2022/08/14 09:30:15;;;;;;;6.10;3.13;;;26.30;10.50;;;;;;5063517;28;46375;-68
2022/08/14 09:33:03;;;;;;;7.00;3.00;;;26.40;6.50;;;;;;5063108;28;45812;-66
2022/08/14 09:35:55;;;;;;;11.07;3.13;;;26.50;6.40;;;;;;5053649;28;46582;-67
2022/08/14 09:38:53;;;;;;;5.40;2.90;;;26.60;6.30;;;;;;5065700;28;47056;-69
2022/08/14 09:41:30;;;;;;;5.30;3.30;;;26.60;12.80;;;;;;5060167;28;46525;-69
2022/08/14 09:43:56;;;;;;;4.10;3.00;;;;;;;;;;5060623;28;46240;-69
2022/08/14 09:46:26;;;;;;;7.27;2.80;;;26.20;6.70;;;;;;5060295;28;46220;-71
2022/08/14 09:49:04;;;;;;;5.53;3.80;;;26.50;6.40;;;;;;5060167;28;46418;-70
2022/08/14 09:51:31;;;;;;;5.27;3.10;;;26.60;6.30;;;;;;5061137;28;46397;-69
2022/08/14 09:54:05;;;;;;;5.10;3.10;;;26.70;6.50;;;;;;5060817;28;45815;-71
2022/08/14 09:56:44;;;;;;;4.37;3.10;;;26.90;15.10;;;;;;5059278;28;46420;-69
2022/08/14 09:59:13;;;;;;;3.90;2.60;;;26.90;6.00;;;;;;5061198;28;47143;-70
2022/08/14 10:01:40;;;;;;;8.97;2.93;;;;;;;;;;5058143;28;46458;-67
2022/08/14 10:04:18;;;;;;;7.10;3.00;;;27.40;12.40;;;;;;5061517;28;46979;-69
2022/08/14 10:06:44;;;;;;;4.53;3.00;;;27.20;5.90;;;;;;5059716;28;46484;-68
2022/08/14 10:09:10;;;;;;;4.30;2.87;;;;;;;;;;5059728;28;46746;-68
2022/08/14 10:11:38;;;;;;;4.73;3.00;;;27.10;4.80;;;;;;5062405;27;46796;-69
2022/08/14 10:14:16;;;;;;;5.47;2.83;;;26.90;5.00;;;;;;5059099;28;46397;-68
2022/08/14 10:16:45;;;;;;;11.70;3.57;;;26.70;6.90;;;;;;5060633;28;46365;-69
2022/08/14 10:19:14;;;;;;;4.60;3.00;;;26.90;5.50;;;;;;5060254;28;46437;-69
2022/08/14 10:22:06;;;;;;;10.37;2.97;;;27.20;7.90;;;;;;5058606;28;46465;-66
2022/08/14 10:24:39;;;;;;;5.00;3.23;;;27.30;4.90;;;;;;5061124;28;46380;-68
2022/08/14 10:27:22;;;;;;;3.63;2.83;;;27.40;4.60;;;;;;5056968;28;46430;-68
2022/08/14 10:29:51;;;;;;;4.20;2.83;;;27.40;4.60;;;;;;5059515;28;46425;-68
2022/08/14 10:32:17;;;;;;;4.30;2.90;;;;;;;;;;5060303;28;46402;-68
2022/08/14 10:34:45;;;;;;;5.17;2.87;;;27.50;8.50;;;;;;5061326;28;46230;-67
2022/08/14 10:37:13;;;;;;;3.50;2.47;;;27.70;4.00;;;;;;5061503;28;46559;-68
2022/08/14 10:39:40;;;;;;;4.20;2.93;;;27.60;4.00;;;;;;5059770;28;47210;-68
2022/08/14 10:42:06;;;;;;;6.83;3.07;;;27.80;6.50;;;;;;5063963;28;46436;-67
2022/08/14 10:44:40;;;;;;;8.73;3.03;;;28.10;6.00;;;;;;5062418;28;46444;-66
2022/08/14 10:47:11;;;;;;;5.07;2.80;;;27.90;4.10;;;;;;5060201;28;46362;-67
2022/08/14 10:49:48;;;;;;;5.80;2.97;;;28.00;4.30;;;;;;5060385;28;46136;-67
2022/08/14 10:52:22;;;;;;;7.60;2.60;;;28.00;3.60;;;;;;5061388;28;46500;-67
2022/08/14 10:54:49;;;;;;;4.60;2.70;;;;;;;;;;5057481;28;46471;-68
2022/08/14 10:57:19;;;;;;;4.77;2.83;;;27.80;2.40;;;;;;5055701;28;46453;-68
2022/08/14 10:59:49;;;;;;;5.63;2.57;;;27.90;2.50;;;;;;5060224;28;47048;-67
2022/08/14 11:02:33;;;;;;;3.80;2.50;;;28.00;2.10;;;;;;5052643;28;46403;-68
2022/08/14 11:05:11;;;;;;;5.10;2.77;;;28.00;1.90;;;;;;5060589;28;45794;-68
2022/08/14 11:07:40;;;;;;;4.00;2.83;;;27.90;2.10;;;;;;5058184;28;46453;-67
2022/08/14 11:10:13;;;;;;;4.20;3.07;;;27.70;4.50;;;;;;5058867;28;46504;-68
2022/08/14 11:12:47;;;;;;;7.50;3.13;;;27.70;8.50;;;;;;5060187;28;46354;-69
2022/08/14 11:15:26;;;;;;;4.00;2.57;;;28.30;2.20;;;;;;5059777;28;46497;-69
2022/08/14 11:17:52;;;;;;;5.33;2.77;;;27.80;8.70;;;;;;5057967;28;46420;-68
2022/08/14 11:20:29;;;;;;;9.70;3.00;;;28.20;1.40;;;;;;5061052;28;46127;-67
2022/08/14 11:22:58;;;;;;;6.07;2.80;;;28.30;1.20;;;;;;5060439;28;46602;-67
2022/08/14 11:25:28;;;;;;;16.90;3.13;;;28.10;8.40;;;;;;5060592;28;46532;-67
2022/08/14 11:27:55;;;;;;;4.73;2.00;;;28.40;8.70;;;;;;5059576;28;46377;-68
2022/08/14 11:30:25;;;;;;;2.73;1.90;;;28.40;1.00;;;;;;5058397;28;46460;-68
2022/08/14 11:32:53;;;;;;;4.70;2.67;;;28.10;7.10;;;;;;5059671;28;45823;-68
2022/08/14 11:35:21;;;;;;;9.53;2.60;;;28.10;1.00;;;;;;5055637;28;46395;-68
2022/08/14 11:37:58;;;;;;;3.97;2.50;;;28.20;1.00;;;;;;5058464;28;46282;-68
2022/08/14 11:40:35;;;;;;;4.53;2.23;;;28.30;1.00;;;;;;5054874;28;46530;-67
2022/08/14 11:43:04;;;;;;;3.97;2.50;;;28.40;1.00;;;;;;5060218;28;45851;-67
2022/08/14 11:45:33;;;;;;;3.70;2.40;;;28.40;1.00;;;;;;5059378;28;46433;-67
2022/08/14 11:48:01;;;;;;;3.50;2.50;;;28.60;1.00;;;;;;5057718;28;45935;-66
2022/08/14 11:50:32;;;;;;;4.80;2.50;;;28.20;1.00;;;;;;5059965;28;48736;-67
2022/08/14 11:53:00;;;;;;;5.00;2.40;;;28.60;1.00;;;;;;5060026;28;46526;-67
2022/08/14 11:55:32;;;;;;;3.90;2.50;;;28.30;1.00;;;;;;5059826;28;46400;-68
2022/08/14 11:58:03;;;;;;;3.47;2.37;;;28.90;1.00;;;;;;5059404;28;46513;-68
2022/08/14 12:00:29;;;;;;;6.10;2.63;;;28.90;1.00;;;;;;5058670;28;47986;-68
2022/08/14 12:02:58;;;;;;;3.97;2.80;;;28.90;1.00;;;;;;5060501;28;46481;-68
2022/08/14 12:05:41;;;;;;;5.57;2.50;;;29.20;4.80;;;;;;5057278;28;46385;-68
2022/08/14 12:08:07;;;;;;;4.17;2.50;;;28.70;1.00;;;;;;5056008;28;45771;-67
2022/08/14 12:10:35;;;;;;;3.10;2.33;;;28.70;1.00;;;;;;5055575;28;47090;-67
2022/08/14 12:13:15;;;;;;;3.93;2.60;;;28.80;1.00;;;;;;5054605;28;46416;-67
2022/08/14 12:15:43;;;;;;;3.40;2.30;;;28.90;3.20;;;;;;5057821;28;46409;-65
2022/08/14 12:18:10;;;;;;;4.33;1.87;;;;;;;;;;5056230;28;46389;-66
2022/08/14 12:20:38;;;;;;;4.60;1.97;;;29.10;1.00;;;;;;5057539;28;46500;-66
2022/08/14 12:23:05;;;;;;;3.40;2.20;;;29.20;1.00;;;;;;5056126;28;46523;-66
2022/08/14 12:25:32;;;;;;;7.10;2.00;;;29.60;5.80;;;;;;5059380;28;46494;-66
2022/08/14 12:28:04;;;;;;;3.60;1.70;;;29.40;1.00;;;;;;5059215;28;46459;-67
2022/08/14 12:30:35;;;;;;;3.07;1.90;;;29.50;1.00;;;;;;5059031;28;47372;-66
2022/08/14 12:33:03;;;;;;;3.40;1.50;;;29.50;1.00;;;;;;5058835;28;46474;-65
2022/08/14 12:35:44;;;;;;;4.83;1.90;;;29.70;4.40;;;;;;5056919;28;46457;-66
2022/08/14 12:38:11;;;;;;;3.70;2.13;;;29.80;3.70;;;;;;5057435;28;46415;-67
2022/08/14 12:40:52;;;;;;;7.30;1.83;;;29.50;1.00;;;;;;5057350;28;46456;-67
2022/08/14 12:43:19;;;;;;;3.00;1.83;;;29.70;4.70;;;;;;5057625;28;46468;-67
2022/08/14 12:45:51;;;;;;;3.20;1.90;;;29.40;1.00;;;;;;5058930;28;45956;-67
2022/08/14 12:48:20;;;;;;;3.70;2.23;;;30.00;1.00;;;;;;5058161;28;46378;-67
2022/08/14 12:50:47;;;;;;;3.67;2.30;;;29.90;1.00;;;;;;5057651;28;46413;-66
2022/08/14 12:53:13;;;;;;;4.80;1.93;;;29.80;4.00;;;;;;5059112;28;46355;-65
2022/08/14 12:55:42;;;;;;;3.10;1.73;;;29.80;1.00;;;;;;5058678;28;46340;-66
2022/08/14 12:58:09;;;;;;;2.73;1.80;;;29.80;4.10;;;;;;5059425;28;46858;-66
2022/08/14 13:00:37;;;;;;;3.50;1.70;;;29.90;1.00;;;;;;5058930;28;46468;-65
2022/08/14 13:03:04;;;;;;;2.97;1.87;;;29.50;1.00;;;;;;5059136;28;46376;-66
2022/08/14 13:05:33;;;;;;;3.73;2.23;;;29.90;1.00;;;;;;5059494;28;46656;-66
2022/08/14 13:08:04;;;;;;;3.37;2.27;;;29.80;1.00;;;;;;5056889;28;46396;-66
2022/08/14 13:10:33;;;;;;;4.50;2.10;;;29.70;1.00;;;;;;5058376;28;46365;-66
2022/08/14 13:13:01;;;;;;;6.93;2.03;;;29.80;1.00;;;;;;5058602;28;46458;-66
2022/08/14 13:15:27;;;;;;;3.17;1.90;;;;;;;;;;5058096;28;46533;-66
2022/08/14 13:18:00;;;;;;;3.60;1.90;;;30.00;3.90;;;;;;5058747;28;46529;-66
2022/08/14 13:20:27;;;;;;;3.10;1.63;;;;;;;;;;5060720;28;46349;-66
2022/08/14 13:22:54;;;;;;;2.60;1.70;;;29.90;3.10;;;;;;5062370;28;46468;-66
2022/08/14 13:25:26;;;;;;;2.73;1.70;;;29.80;1.00;;;;;;5063272;28;46380;-66
2022/08/14 13:27:54;;;;;;;2.60;1.50;;;29.70;1.00;;;;;;5058818;28;46393;-66
2022/08/14 13:30:23;;;;;;;2.90;1.90;;;30.10;1.90;;;;;;5059119;28;47010;-66